Airfield :
LOGIN :

Register | Disclaimer

   EN    FR    IT 

 










Legend :    VFR   Marginal VFR   IFR   Intensive IFR   Very Intensive IFR
Visi :
Ceiling :
>= 8 km
>= 3000ft
5 to 8 km
1000 to 3000 ft
1500m to 5 km
500 to 1000 ft
800 to 1500m
200 to 500 ft
< 800m
< 200 ft
Symbols :   Thunderstorms  Fog  Heavy snow  Heavy precipitations  Wind > 20 kt
SIGMETs :     Misc.  Thunderstorms  Icing  Turbulence  Mountain Waves  Volcanic Ashes






- Airport Elevation : 1649 ft
- IATA code : HHN


EDFH - Frankfurt-Hahn Rhineland-Palatinate

CURRENT METAR :
  • 271750Z 33011KT 310V010 2000 SN BR BKN001 M01/M01 Q0994

EXPIRED METARs :
  • 271720Z 34010KT 300V020 2000 SN BR BKN001 M01/M01 Q0992
  • 271650Z 01005KT 340V040 0900 R21/1800D SN FZFG BKN001 M01/M01 Q0990
  • 271620Z 07007KT 050V110 0400 R21/0550N SN FZFG BKN001 M01/M01 Q0989
  • 271550Z 12008KT 090V150 0800 R21/1100N SN FZFG BKN001 M01/M01 Q0988
  • 271520Z 13016KT 0600 R21/0900N SN FZFG BKN001 M01/M01 Q0988

TAF TAF EDFH
Valid from the 27 at 18:00 until the 28 at 18:00 UTC


271700Z 2718/2818 36009KT 1200 SN BKN001
PROB30
TEMPO 2718/2724 29015G25KT
BECMG 2718/2720 28010KT
BECMG 2718/2722 8000 NSW BKN010
BECMG 2722/2802 SCT015
PROB30
TEMPO 2802/2808 BKN012
BECMG 2812/2814 18010KT



MET'MAP, your aeronautical weather chart ! - Copyright ORBIFLY December 2007 - Disclaimer

ORBIFLY MET'MAP TEAM :

Programming & Development : Alexandra Zaïnal
Concept & original design : Baudouin d'Aumeries
Assistance for programming : Marc-Olivier Méhu
Technical & hardware support : Manuel Goepfert

Contact : metmap@orbifly.com




SOURCES & CREDITS :

   NOAA